Terminal Aerodrome Forecast
Issued by NWS

Home | Current Version | Previous Version | Text Only | Print | Product List | Glossary On
Versions: 1 2 3 4 5 6 7 8 9 10 11 12 13 14 15 16 17
990
FTUS45 KRIW 201741
TAFBPI
TAF
KBPI 201741Z 2018/2118 VRB03KT P6SM SCT070
     FM202300 33007KT P6SM VCSH BKN070
     FM210500 VRB06KT P6SM SCT070 BKN110
     FM211200 31007KT P6SM SCT080 BKN200=

USA.gov is the U.S. government's official web portal to all federal, state and local government web resources and services.